Time;durP1;ratioP1;P1;durP2;ratioP2;P2;SDS_P1;SDS_P2;PMS_P1;PMS_P2;Temp;Humidity;BMP_temperature;BMP_pressure;BME280_temperature;BME280_humidity;BME280_pressure;Samples;Min_cycle;Max_cycle;Signal;HPM_P1;HPM_P2
2024/03/04 00:00:57;;;;;;;1999.90;999.90;;;4.40;99.90;;;;;;5054536;28;20025;-81
2024/03/04 00:03:23;;;;;;;1999.90;999.90;;;4.40;99.90;;;;;;5054492;28;20064;-79
2024/03/04 00:05:49;;;;;;;1999.90;999.90;;;4.40;99.90;;;;;;5056989;28;20021;-80
2024/03/04 00:08:15;;;;;;;1999.90;999.90;;;4.30;99.90;;;;;;5054309;28;20102;-78
2024/03/04 00:10:41;;;;;;;1999.90;999.90;;;4.30;99.90;;;;;;5053347;28;20025;-82
2024/03/04 00:13:08;;;;;;;1999.90;999.90;;;4.30;99.90;;;;;;5058669;28;20044;-78
2024/03/04 00:15:33;;;;;;;1999.90;999.90;;;4.30;99.90;;;;;;5049270;28;20058;-78
2024/03/04 00:17:59;;;;;;;1999.90;999.90;;;4.30;99.90;;;;;;5048905;28;20077;-78
2024/03/04 00:20:25;;;;;;;1999.90;999.90;;;4.30;99.90;;;;;;5034692;28;20022;-78
2024/03/04 00:22:51;;;;;;;1999.90;999.90;;;4.30;99.90;;;;;;5049036;28;20032;-82
2024/03/04 00:25:17;;;;;;;1999.90;999.90;;;4.30;99.90;;;;;;5050048;28;20022;-78
2024/03/04 00:27:44;;;;;;;1999.90;999.90;;;4.20;99.90;;;;;;5035895;28;20038;-78
2024/03/04 00:30:11;;;;;;;1999.90;999.90;;;4.20;99.90;;;;;;5052441;28;20025;-78
2024/03/04 00:32:37;;;;;;;1999.90;999.90;;;4.30;99.90;;;;;;5055725;28;20072;-78
2024/03/04 00:35:06;;;;;;;1999.90;999.90;;;4.30;99.90;;;;;;5052167;28;20399;-78
2024/03/04 00:37:35;;;;;;;1999.90;999.90;;;4.30;99.90;;;;;;5052537;28;20033;-79
2024/03/04 00:40:05;;;;;;;1999.90;999.90;;;4.30;99.90;;;;;;5055034;28;20025;-79
2024/03/04 00:42:32;;;;;;;1999.90;999.90;;;4.40;99.90;;;;;;5052274;28;20032;-78
2024/03/04 00:44:58;;;;;;;1999.90;999.90;;;4.40;99.90;;;;;;5055163;28;20034;-78
2024/03/04 00:47:24;;;;;;;1999.90;999.90;;;4.40;99.90;;;;;;5053567;28;20033;-78
2024/03/04 00:49:50;;;;;;;1999.90;999.90;;;4.40;99.90;;;;;;5053309;28;20021;-78
2024/03/04 00:52:17;;;;;;;1999.90;999.90;;;4.40;99.90;;;;;;5061535;28;20025;-78
2024/03/04 00:54:45;;;;;;;1999.90;999.90;;;4.30;99.90;;;;;;5052579;28;20044;-79
2024/03/04 00:57:11;;;;;;;1999.90;999.90;;;4.30;99.90;;;;;;5052630;28;20368;-78
2024/03/04 00:59:37;;;;;;;1999.90;999.90;;;4.30;99.90;;;;;;5069733;28;20008;-78
2024/03/04 01:02:06;;;;;;;1999.90;999.90;;;4.40;99.90;;;;;;5053221;28;20047;-78
2024/03/04 01:04:33;;;;;;;1999.90;999.90;;;4.50;99.90;;;;;;5051958;28;20032;-78
2024/03/04 01:06:58;;;;;;;1999.90;999.90;;;4.50;99.90;;;;;;5061269;28;20024;-81
2024/03/04 01:09:24;;;;;;;1999.90;999.90;;;4.50;99.90;;;;;;5051862;28;20063;-78
2024/03/04 01:11:53;;;;;;;1999.90;999.90;;;4.50;99.90;;;;;;5051965;28;20036;-78
2024/03/04 01:14:22;;;;;;;1999.90;999.90;;;4.40;99.90;;;;;;5053759;28;20021;-78
2024/03/04 01:16:52;;;;;;;1999.90;999.90;;;4.30;99.90;;;;;;5049764;28;20060;-81
2024/03/04 01:19:19;;;;;;;1999.90;999.90;;;4.20;99.90;;;;;;5052980;28;20087;-78
2024/03/04 01:21:44;;;;;;;1999.90;999.90;;;4.20;99.90;;;;;;5062394;28;20025;-78
2024/03/04 01:24:11;;;;;;;1999.90;999.90;;;4.20;99.90;;;;;;5052315;28;20032;-81
2024/03/04 01:26:37;;;;;;;1999.90;999.90;;;4.10;99.90;;;;;;5055581;28;20411;-78
2024/03/04 01:29:08;;;;;;;1999.90;999.90;;;4.10;99.90;;;;;;5066837;28;20033;-78
2024/03/04 01:31:34;;;;;;;1999.90;999.90;;;4.00;99.90;;;;;;5055647;28;20029;-78
2024/03/04 01:34:02;;;;;;;1999.90;999.90;;;4.10;99.90;;;;;;5055844;28;20135;-78
2024/03/04 01:36:29;;;;;;;1999.90;999.90;;;4.30;99.90;;;;;;5056878;28;20036;-81
2024/03/04 01:38:55;;;;;;;1999.90;999.90;;;4.30;99.90;;;;;;5055632;28;20045;-79
2024/03/04 01:41:20;;;;;;;1999.90;999.90;;;4.30;99.90;;;;;;5057048;28;20099;-78
2024/03/04 01:43:46;;;;;;;1999.90;999.90;;;4.30;99.90;;;;;;5055360;28;20065;-78
2024/03/04 01:46:12;;;;;;;1999.90;999.90;;;4.30;99.90;;;;;;5056888;28;20485;-78
2024/03/04 01:48:39;;;;;;;1999.90;999.90;;;4.20;99.90;;;;;;5069753;28;20396;-82
2024/03/04 01:51:06;;;;;;;1999.90;999.90;;;4.20;99.90;;;;;;5055494;28;20033;-78
2024/03/04 01:53:32;;;;;;;1999.90;999.90;;;4.20;99.90;;;;;;5055444;28;20031;-78
2024/03/04 01:56:05;;;;;;;1999.90;999.90;;;4.20;99.90;;;;;;5063495;28;20057;-81
2024/03/04 01:58:33;;;;;;;1999.90;999.90;;;4.20;99.90;;;;;;5055447;28;20021;-81
2024/03/04 02:01:02;;;;;;;1999.90;999.90;;;4.20;99.90;;;;;;5056371;28;20483;-81
2024/03/04 02:03:31;;;;;;;1999.90;999.90;;;4.20;99.90;;;;;;5055318;28;20135;-78
2024/03/04 02:05:58;;;;;;;1999.90;999.90;;;4.30;99.90;;;;;;5055030;28;20035;-78
2024/03/04 02:08:24;;;;;;;1999.90;999.90;;;4.20;99.90;;;;;;5058430;28;20090;-81
2024/03/04 02:10:51;;;;;;;1999.90;999.90;;;4.20;99.90;;;;;;5056324;28;20487;-78
2024/03/04 02:13:20;;;;;;;1999.90;999.90;;;4.20;99.90;;;;;;5055677;28;20510;-81
2024/03/04 02:15:47;;;;;;;1999.90;999.90;;;4.20;99.90;;;;;;5074072;28;20064;-79
2024/03/04 02:18:15;;;;;;;1999.90;999.90;;;4.20;99.90;;;;;;5037631;28;20135;-78
2024/03/04 02:20:45;;;;;;;1999.90;999.90;;;4.30;99.90;;;;;;5034957;28;20476;-79
2024/03/04 02:23:12;;;;;;;1999.90;999.90;;;4.30;99.90;;;;;;5043035;28;20013;-81
2024/03/04 02:25:39;;;;;;;1999.90;999.90;;;4.30;99.90;;;;;;5033628;28;20034;-78
2024/03/04 02:28:06;;;;;;;1999.90;999.90;;;4.30;99.90;;;;;;5033514;28;20037;-79
2024/03/04 02:30:33;;;;;;;1999.90;999.90;;;4.30;99.90;;;;;;5035049;28;20049;-78
2024/03/04 02:33:02;;;;;;;1999.90;999.90;;;4.40;99.90;;;;;;5033874;28;20024;-81
2024/03/04 02:35:33;;;;;;;1999.90;999.90;;;4.30;99.90;;;;;;5033651;28;20061;-78
2024/03/04 02:38:02;;;;;;;1999.90;999.90;;;4.30;99.90;;;;;;5036340;28;20076;-78
2024/03/04 02:40:28;;;;;;;1999.90;999.90;;;4.40;99.90;;;;;;5033579;28;20048;-78
2024/03/04 02:42:54;;;;;;;1999.90;999.90;;;4.50;99.90;;;;;;5036571;28;20030;-78
2024/03/04 02:45:20;;;;;;;1999.90;999.90;;;4.40;99.90;;;;;;5033490;28;20029;-78
2024/03/04 02:47:46;;;;;;;1999.90;999.90;;;4.30;99.90;;;;;;5033189;28;20026;-78
2024/03/04 02:50:11;;;;;;;1999.90;999.90;;;4.20;99.90;;;;;;5066582;28;20067;-80
2024/03/04 02:52:37;;;;;;;1999.90;999.90;;;4.20;99.90;;;;;;5040177;28;20102;-80
2024/03/04 02:55:04;;;;;;;1999.90;999.90;;;4.30;99.90;;;;;;5032746;28;20029;-81
2024/03/04 02:57:29;;;;;;;1999.90;999.90;;;4.30;99.90;;;;;;5034116;28;20078;-78
2024/03/04 02:59:55;;;;;;;1999.90;999.90;;;4.40;99.90;;;;;;5032700;28;20056;-78
2024/03/04 03:02:21;;;;;;;1999.90;999.90;;;4.40;99.90;;;;;;5034599;28;20021;-81
2024/03/04 03:04:47;;;;;;;1999.90;999.90;;;4.50;99.90;;;;;;5040692;28;20041;-79
2024/03/04 03:07:12;;;;;;;1999.90;999.90;;;4.50;99.90;;;;;;5033101;28;20034;-78
2024/03/04 03:09:38;;;;;;;1999.90;999.90;;;4.50;99.90;;;;;;5033827;28;20026;-78
2024/03/04 03:12:05;;;;;;;1999.90;999.90;;;4.50;99.90;;;;;;5045097;28;20037;-78
2024/03/04 03:14:34;;;;;;;1999.90;999.90;;;4.40;99.90;;;;;;5048994;28;20020;-78
2024/03/04 03:17:02;;;;;;;1999.90;999.90;;;4.40;99.90;;;;;;5054225;28;20111;-78
2024/03/04 03:19:28;;;;;;;1999.90;999.90;;;4.40;99.90;;;;;;5011927;28;1203738;-78
2024/03/04 03:21:55;;;;;;;1999.90;999.90;;;4.40;99.90;;;;;;5053621;28;20017;-78
2024/03/04 03:24:23;;;;;;;1999.90;999.90;;;4.50;99.90;;;;;;5057017;28;20018;-81
2024/03/04 03:26:49;;;;;;;1999.90;999.90;;;4.60;99.90;;;;;;5054694;28;20076;-78
2024/03/04 03:29:15;;;;;;;1999.90;999.90;;;4.60;99.90;;;;;;5058270;28;20021;-78
2024/03/04 03:31:41;;;;;;;1999.90;999.90;;;4.60;99.90;;;;;;5053523;28;20029;-78
2024/03/04 03:34:07;;;;;;;1999.90;999.90;;;4.60;99.90;;;;;;5053837;28;20029;-78
2024/03/04 03:36:33;;;;;;;1999.90;999.90;;;4.70;99.90;;;;;;5067188;28;20048;-79
2024/03/04 03:38:58;;;;;;;1999.90;999.90;;;4.70;99.90;;;;;;5053514;28;20036;-78
2024/03/04 03:41:24;;;;;;;1999.90;999.90;;;4.60;99.90;;;;;;5053661;28;20029;-78
2024/03/04 03:43:50;;;;;;;1999.90;999.90;;;4.60;99.90;;;;;;5054778;28;20025;-78
2024/03/04 03:46:15;;;;;;;1999.90;999.90;;;4.60;99.90;;;;;;5053930;28;20060;-78
2024/03/04 03:48:44;;;;;;;1999.90;999.90;;;4.60;99.90;;;;;;5057725;28;20024;-79
2024/03/04 03:51:13;;;;;;;1999.90;999.90;;;4.50;99.90;;;;;;5053210;28;20032;-78
2024/03/04 03:53:38;;;;;;;1999.90;999.90;;;4.50;99.90;;;;;;5054366;28;20479;-81
2024/03/04 03:56:05;;;;;;;1999.90;999.90;;;4.40;99.90;;;;;;5058506;28;20032;-78
2024/03/04 03:58:31;;;;;;;1999.90;999.90;;;4.40;99.90;;;;;;5053081;28;20033;-81
2024/03/04 04:00:57;;;;;;;1999.90;999.90;;;4.30;99.90;;;;;;5054308;28;20025;-78
2024/03/04 04:03:23;;;;;;;1999.90;999.90;;;4.40;99.90;;;;;;5054409;28;20029;-78
2024/03/04 04:05:48;;;;;;;1999.90;999.90;;;4.40;99.90;;;;;;5053184;28;20021;-78
2024/03/04 04:08:14;;;;;;;1999.90;999.90;;;4.40;99.90;;;;;;5055996;28;20036;-78
2024/03/04 04:10:40;;;;;;;1999.90;999.90;;;4.30;99.90;;;;;;5052775;28;20028;-78
2024/03/04 04:13:06;;;;;;;1999.90;999.90;;;4.30;99.90;;;;;;5052770;28;20063;-78
2024/03/04 04:15:32;;;;;;;1999.90;999.90;;;4.30;99.90;;;;;;5050372;28;20024;-78
2024/03/04 04:17:58;;;;;;;1999.90;999.90;;;4.20;99.90;;;;;;5052092;28;20044;-78
2024/03/04 04:20:25;;;;;;;1999.90;999.90;;;4.10;99.90;;;;;;5053906;28;20021;-78
2024/03/04 04:22:51;;;;;;;1999.90;999.90;;;4.10;99.90;;;;;;5059915;28;20551;-78
2024/03/04 04:25:17;;;;;;;1999.90;999.90;;;4.00;99.90;;;;;;5052600;28;20102;-81
2024/03/04 04:27:44;;;;;;;1999.90;999.90;;;4.00;99.90;;;;;;5053712;28;20033;-79
2024/03/04 04:30:11;;;;;;;1999.90;999.90;;;4.00;99.90;;;;;;5053836;28;20483;-78
2024/03/04 04:32:37;;;;;;;1999.90;999.90;;;4.10;99.90;;;;;;5053883;28;20021;-78
2024/03/04 04:35:04;;;;;;;1999.90;999.90;;;4.00;99.90;;;;;;5069844;28;20153;-80
2024/03/04 04:37:30;;;;;;;1999.90;999.90;;;4.00;99.90;;;;;;5055886;28;20060;-81
2024/03/04 04:39:57;;;;;;;1999.90;999.90;;;4.00;99.90;;;;;;5053798;28;20060;-78
2024/03/04 04:42:26;;;;;;;1999.90;999.90;;;4.00;99.90;;;;;;5059765;28;20019;-79
2024/03/04 04:44:52;;;;;;;1999.90;999.90;;;4.00;99.90;;;;;;5052162;28;20044;-78
2024/03/04 04:47:17;;;;;;;1999.90;999.90;;;4.00;99.90;;;;;;5053894;28;20044;-78
2024/03/04 04:49:43;;;;;;;1999.90;999.90;;;4.00;99.90;;;;;;5053641;28;20033;-81
2024/03/04 04:52:09;;;;;;;1999.90;999.90;;;3.90;99.90;;;;;;5053773;28;20025;-81
2024/03/04 04:54:34;;;;;;;1999.90;999.90;;;3.90;99.90;;;;;;5052107;28;20099;-78
2024/03/04 04:57:00;;;;;;;1999.90;999.90;;;3.90;99.90;;;;;;5060016;28;20111;-78
2024/03/04 04:59:25;;;;;;;1999.90;999.90;;;3.90;99.90;;;;;;5052424;28;20028;-78
2024/03/04 05:01:51;;;;;;;1999.90;999.90;;;3.90;99.90;;;;;;5053716;28;20487;-80
2024/03/04 05:04:18;;;;;;;1999.90;999.90;;;4.00;99.90;;;;;;5055131;28;20047;-78
2024/03/04 05:06:45;;;;;;;1999.90;999.90;;;4.00;99.90;;;;;;5053502;28;20021;-78
2024/03/04 05:09:13;;;;;;;1999.90;999.90;;;4.10;99.90;;;;;;5052962;28;20052;-78
2024/03/04 05:11:39;;;;;;;1999.90;999.90;;;4.10;99.90;;;;;;5052019;28;20030;-78
2024/03/04 05:14:08;;;;;;;1999.90;999.90;;;4.10;99.90;;;;;;5053240;28;20458;-81
2024/03/04 05:16:34;;;;;;;1999.90;999.90;;;4.20;99.90;;;;;;5058825;28;20013;-78
2024/03/04 05:19:01;;;;;;;1999.90;999.90;;;4.20;99.90;;;;;;5051705;28;20529;-81
2024/03/04 05:21:27;;;;;;;1999.90;999.90;;;4.20;99.90;;;;;;5051820;28;20415;-81
2024/03/04 05:23:52;;;;;;;1999.90;999.90;;;4.20;99.90;;;;;;5055763;28;20071;-78
2024/03/04 05:26:18;;;;;;;1999.90;999.90;;;4.20;99.90;;;;;;5051549;28;20440;-78
2024/03/04 05:28:44;;;;;;;1999.90;999.90;;;4.20;99.90;;;;;;5053739;28;20399;-78
2024/03/04 05:31:10;;;;;;;1999.90;999.90;;;4.20;99.90;;;;;;5053910;28;20099;-78
2024/03/04 05:33:36;;;;;;;1999.90;999.90;;;4.20;99.90;;;;;;5051763;28;20030;-78
2024/03/04 05:36:08;;;;;;;1999.90;999.90;;;4.30;99.90;;;;;;5053373;28;20031;-78
2024/03/04 05:38:34;;;;;;;1999.90;999.90;;;4.30;99.90;;;;;;5051718;28;20036;-78
2024/03/04 05:40:59;;;;;;;1999.90;999.90;;;4.40;99.90;;;;;;5052762;28;20021;-78
2024/03/04 05:43:25;;;;;;;1999.90;999.90;;;4.40;99.90;;;;;;5056402;28;20084;-79
2024/03/04 05:45:51;;;;;;;1999.90;999.90;;;4.40;99.90;;;;;;5051674;28;20399;-78
2024/03/04 05:48:17;;;;;;;1999.90;999.90;;;4.40;99.90;;;;;;5051475;28;20479;-81
2024/03/04 05:50:42;;;;;;;1999.90;999.90;;;4.40;99.90;;;;;;5053185;28;20094;-79
2024/03/04 05:53:08;;;;;;;1999.90;999.90;;;4.30;99.90;;;;;;5051503;28;20058;-78
2024/03/04 05:55:35;;;;;;;1999.90;999.90;;;4.40;99.90;;;;;;5052583;28;20071;-78
2024/03/04 05:58:00;;;;;;;1999.90;999.90;;;4.40;99.90;;;;;;5049594;28;20050;-81
2024/03/04 06:00:30;;;;;;;1999.90;999.90;;;4.40;99.90;;;;;;5051402;28;20029;-78
2024/03/04 06:02:56;;;;;;;1999.90;999.90;;;4.50;99.90;;;;;;5053973;28;20016;-78
2024/03/04 06:05:22;;;;;;;1999.90;999.90;;;4.50;99.90;;;;;;5051110;28;20025;-78
2024/03/04 06:07:47;;;;;;;1999.90;999.90;;;4.50;99.90;;;;;;5051454;28;20045;-82
2024/03/04 06:10:13;;;;;;;1999.90;999.90;;;4.50;99.90;;;;;;5064097;28;20041;-78
2024/03/04 06:12:39;;;;;;;1999.90;999.90;;;4.60;99.90;;;;;;5056304;28;20060;-78
2024/03/04 06:15:05;;;;;;;1999.90;999.90;;;4.70;99.90;;;;;;5056156;28;20035;-78
2024/03/04 06:17:30;;;;;;;1999.90;999.90;;;4.70;99.90;;;;;;5063167;28;20073;-81
2024/03/04 06:19:56;;;;;;;1999.90;999.90;;;4.70;99.90;;;;;;5055962;28;20036;-81
2024/03/04 06:22:25;;;;;;;1999.90;999.90;;;4.70;99.90;;;;;;5056354;28;20526;-79
2024/03/04 06:24:51;;;;;;;1999.90;999.90;;;4.70;99.90;;;;;;5056684;28;20033;-78
2024/03/04 06:27:17;;;;;;;1999.90;999.90;;;4.70;99.90;;;;;;5054659;28;20040;-78
2024/03/04 06:29:42;;;;;;;1999.90;999.90;;;4.80;99.90;;;;;;5055795;28;20029;-79
2024/03/04 06:32:08;;;;;;;1999.90;999.90;;;4.80;99.90;;;;;;5053668;28;20098;-81
2024/03/04 06:34:34;;;;;;;1999.90;999.90;;;4.80;99.90;;;;;;5053622;28;20021;-81
2024/03/04 06:36:59;;;;;;;1999.90;999.90;;;4.80;99.90;;;;;;5068393;28;20079;-78
2024/03/04 06:39:27;;;;;;;1999.90;999.90;;;4.80;99.90;;;;;;5054485;28;20044;-78
2024/03/04 06:41:53;;;;;;;1999.90;999.90;;;4.80;99.90;;;;;;5063738;28;20032;-78
2024/03/04 06:44:19;;;;;;;1999.90;999.90;;;4.80;99.90;;;;;;5070527;28;20467;-81
2024/03/04 06:46:45;;;;;;;1999.90;999.90;;;4.80;99.90;;;;;;5053832;28;20061;-78
2024/03/04 06:49:12;;;;;;;1999.90;999.90;;;4.90;99.90;;;;;;5050979;28;20014;-78
2024/03/04 06:51:37;;;;;;;1999.90;999.90;;;4.90;99.90;;;;;;5053870;28;20017;-78
2024/03/04 06:54:07;;;;;;;1999.90;999.90;;;4.90;99.90;;;;;;5053229;28;20140;-81
2024/03/04 06:56:33;;;;;;;1999.90;999.90;;;4.90;99.90;;;;;;5061534;28;20040;-78
2024/03/04 06:58:59;;;;;;;1999.90;999.90;;;5.00;99.90;;;;;;5060321;28;20032;-81
2024/03/04 07:01:25;;;;;;;1999.90;999.90;;;5.00;99.90;;;;;;5070793;28;20025;-81
2024/03/04 07:03:55;;;;;;;1999.90;999.90;;;5.10;99.90;;;;;;5059504;28;20116;-81
2024/03/04 07:06:25;;;;;;;1999.90;999.90;;;5.10;99.90;;;;;;5053814;28;20025;-82
2024/03/04 07:08:51;;;;;;;1999.90;999.90;;;5.10;99.90;;;;;;5053746;28;20135;-77
2024/03/04 07:11:17;;;;;;;1999.90;999.90;;;5.20;99.90;;;;;;5066244;28;20025;-78
2024/03/04 07:13:43;;;;;;;1999.90;999.90;;;5.20;99.90;;;;;;5065044;28;20127;-81
2024/03/04 07:16:12;;;;;;;1999.90;999.90;;;5.30;99.90;;;;;;5056129;28;20555;-81
2024/03/04 07:18:38;;;;;;;1999.90;999.90;;;5.30;99.90;;;;;;5061953;28;20495;-78
2024/03/04 07:21:05;;;;;;;1999.90;999.90;;;5.40;99.90;;;;;;5061521;28;20055;-78
2024/03/04 07:23:30;;;;;;;1999.90;999.90;;;5.40;99.90;;;;;;5062150;28;20067;-79
2024/03/04 07:25:56;;;;;;;1999.90;999.90;;;5.50;99.90;;;;;;5072237;28;20448;-81
2024/03/04 07:28:22;;;;;;;1999.90;999.90;;;5.60;99.90;;;;;;5060059;28;20031;-80
2024/03/04 07:30:51;;;;;;;1999.90;999.90;;;5.70;99.90;;;;;;5071997;28;20470;-78
2024/03/04 07:33:16;;;;;;;1999.90;999.90;;;5.80;99.90;;;;;;5054833;28;20458;-78
2024/03/04 07:35:42;;;;;;;1999.90;999.90;;;5.90;99.90;;;;;;5051369;28;20120;-76
2024/03/04 07:38:09;;;;;;;1999.90;999.90;;;5.90;99.90;;;;;;5052954;28;20495;-76
2024/03/04 07:40:35;;;;;;;1999.90;999.90;;;5.90;99.90;;;;;;5064898;28;20047;-76
2024/03/04 07:43:02;;;;;;;1999.90;999.90;;;5.90;99.90;;;;;;5051547;28;20021;-77
2024/03/04 07:45:28;;;;;;;1999.90;999.90;;;6.00;99.90;;;;;;5047347;28;20040;-77
2024/03/04 07:47:54;;;;;;;1999.90;999.90;;;6.00;99.90;;;;;;5051426;28;20388;-77
2024/03/04 07:50:19;;;;;;;1999.90;999.90;;;6.00;99.90;;;;;;5062719;28;20025;-78
2024/03/04 07:52:47;;;;;;;1999.90;999.90;;;6.10;99.90;;;;;;5053496;28;20090;-77
2024/03/04 07:55:13;;;;;;;1999.90;999.90;;;6.60;99.90;;;;;;5038711;28;20591;-77
2024/03/04 07:57:40;;;;;;;1999.90;999.90;;;7.70;99.90;;;;;;5046817;28;20066;-74
2024/03/04 08:00:06;;;;;;;1999.90;999.90;;;8.50;99.90;;;;;;5045742;28;20039;-73
2024/03/04 08:02:32;;;;;;;1999.90;999.90;;;8.70;99.90;;;;;;5048818;28;20064;-73
2024/03/04 08:04:57;;;;;;;1999.90;999.90;;;8.00;99.90;;;;;;5068894;28;20028;-77
2024/03/04 08:07:23;;;;;;;1999.90;999.90;;;7.30;99.90;;;;;;5086635;28;20052;-76
2024/03/04 08:09:48;;;;;;;1999.90;999.90;;;7.10;99.90;;;;;;5056494;28;20043;-73
2024/03/04 08:12:15;;;;;;;1999.90;999.90;;;7.00;99.90;;;;;;5052236;28;20082;-78
2024/03/04 08:14:40;;;;;;;1999.90;999.90;;;6.90;99.90;;;;;;5046503;28;20051;-76
2024/03/04 08:17:08;;;;;;;1999.90;999.90;;;6.90;99.90;;;;;;5046980;28;20108;-73
2024/03/04 08:19:34;;;;;;;1999.90;999.90;;;7.00;99.90;;;;;;5057553;28;20040;-77
2024/03/04 08:21:59;;;;;;;1999.90;999.90;;;7.20;99.90;;;;;;5064004;28;20033;-72
2024/03/04 08:24:25;;;;;;;1999.90;999.90;;;7.30;99.90;;;;;;5051909;28;20060;-73
2024/03/04 08:26:51;;;;;;;1999.90;999.90;;;7.60;99.90;;;;;;5052372;28;20037;-75
2024/03/04 08:29:17;;;;;;;1999.90;999.90;;;7.80;99.90;;;;;;5051181;28;20029;-73
2024/03/04 08:31:43;;;;;;;1999.90;999.90;;;7.80;99.90;;;;;;5063562;28;20028;-72
2024/03/04 08:34:08;;;;;;;1999.90;999.90;;;8.10;99.90;;;;;;5066429;28;20021;-76
2024/03/04 08:36:34;;;;;;;1999.90;999.90;;;8.50;99.90;;;;;;5051689;28;20024;-76
2024/03/04 08:38:59;;;;;;;1999.90;999.90;;;8.40;99.90;;;;;;5053053;28;20124;-73
2024/03/04 08:41:25;;;;;;;1999.90;999.90;;;8.30;99.90;;;;;;5047894;28;20025;-73
2024/03/04 08:43:51;;;;;;;1999.90;999.90;;;8.30;99.90;;;;;;5050569;28;20147;-75
2024/03/04 08:46:18;;;;;;;1999.90;999.90;;;8.20;99.90;;;;;;5070687;28;20066;-74
2024/03/04 08:48:43;;;;;;;1999.90;999.90;;;7.90;99.90;;;;;;5069764;28;20036;-73
2024/03/04 08:51:09;;;;;;;1999.90;999.90;;;7.80;99.90;;;;;;5076117;28;20039;-77
2024/03/04 08:53:35;;;;;;;1999.90;999.90;;;7.90;99.90;;;;;;5050234;28;20514;-73
2024/03/04 08:56:01;;;;;;;1999.90;999.90;;;8.20;99.90;;;;;;5050301;28;20025;-73
2024/03/04 08:58:27;;;;;;;1999.90;999.90;;;8.80;99.90;;;;;;5061655;28;20024;-78
2024/03/04 09:00:52;;;;;;;1999.90;999.90;;;9.50;99.90;;;;;;5071060;28;20036;-78
2024/03/04 09:03:18;;;;;;;1999.90;999.90;;;9.80;99.90;;;;;;5061076;28;20025;-78
2024/03/04 09:05:44;;;;;;;1999.90;999.90;;;10.00;99.90;;;;;;5060575;28;20017;-73
2024/03/04 09:08:11;;;;;;;1999.90;999.90;;;9.70;99.90;;;;;;5048837;28;20040;-73
2024/03/04 09:10:38;;;;;;;1999.90;999.90;;;9.40;99.90;;;;;;5049146;28;20025;-73
2024/03/04 09:13:04;;;;;;;1999.90;999.90;;;9.00;99.90;;;;;;5049663;28;20465;-73
2024/03/04 09:15:30;;;;;;;1999.90;999.90;;;8.70;99.90;;;;;;5050122;28;20021;-74
2024/03/04 09:17:55;;;;;;;1999.90;999.90;;;8.60;99.90;;;;;;5055677;28;20049;-73
2024/03/04 09:20:21;;;;;;;1999.90;999.90;;;8.70;99.90;;;;;;5063347;28;20021;-73
2024/03/04 09:22:47;;;;;;;1999.90;999.90;;;8.50;99.90;;;;;;5055312;28;20021;-72
2024/03/04 09:25:13;;;;;;;1999.90;999.90;;;8.60;99.90;;;;;;5058481;28;20434;-73
2024/03/04 09:27:42;;;;;;;1999.90;999.90;;;8.80;99.90;;;;;;5052545;28;20464;-78
2024/03/04 09:30:08;;;;;;;1999.90;999.90;;;9.00;99.90;;;;;;5049185;28;20387;-74
2024/03/04 09:32:34;;;;;;;1999.90;999.90;;;9.10;99.90;;;;;;5050999;28;20631;-74
2024/03/04 09:34:59;;;;;;;1999.90;999.90;;;9.40;99.90;;;;;;5050744;28;20017;-74
2024/03/04 09:37:25;;;;;;;1999.90;999.90;;;9.80;99.90;;;;;;5051682;28;20055;-74
2024/03/04 09:39:51;;;;;;;1999.90;999.90;;;10.00;99.90;;;;;;5050809;28;20560;-74
2024/03/04 09:42:18;;;;;;;1999.90;999.90;;;9.80;99.90;;;;;;5052216;28;20036;-73
2024/03/04 09:44:45;;;;;;;1999.90;999.90;;;9.80;99.90;;;;;;5047237;28;20044;-73
2024/03/04 09:47:12;;;;;;;1999.90;999.90;;;10.00;99.90;;;;;;5074146;28;20027;-76
2024/03/04 09:49:39;;;;;;;1999.90;999.90;;;10.20;99.90;;;;;;5059522;28;20029;-78
2024/03/04 09:52:07;;;;;;;1999.90;999.90;;;10.40;99.90;;;;;;5049013;28;20024;-76
2024/03/04 09:54:36;;;;;;;1999.90;999.90;;;10.20;99.90;;;;;;5071652;28;20561;-76
2024/03/04 09:57:02;;;;;;;1999.90;999.90;;;10.00;99.90;;;;;;5063364;28;20021;-76
2024/03/04 09:59:31;;;;;;;1999.90;999.90;;;9.90;99.90;;;;;;5057268;28;20029;-75
2024/03/04 10:01:58;;;;;;;1999.90;999.90;;;9.90;99.90;;;;;;5060472;28;20027;-75
2024/03/04 10:04:25;;;;;;;1999.90;999.90;;;9.90;99.90;;;;;;5054573;28;20529;-74
2024/03/04 10:06:51;;;;;;;1999.90;999.90;;;9.90;99.90;;;;;;5062248;28;20032;-74
2024/03/04 10:09:16;;;;;;;1999.90;999.90;;;10.10;99.90;;;;;;5070767;28;20032;-75
2024/03/04 10:11:43;;;;;;;1999.90;999.90;;;9.90;99.90;;;;;;5058949;28;20513;-74
2024/03/04 10:14:09;;;;;;;1999.90;999.90;;;10.00;99.90;;;;;;5054116;28;20099;-75
2024/03/04 10:16:36;;;;;;;1999.90;999.90;;;10.10;99.90;;;;;;5060177;28;20059;-77
2024/03/04 10:19:04;;;;;;;1999.90;999.90;;;10.00;99.90;;;;;;5071853;28;20132;-75
2024/03/04 10:21:33;;;;;;;1999.90;999.90;;;10.10;99.90;;;;;;5074284;28;20437;-73
2024/03/04 10:24:07;;;;;;;1999.90;999.90;;;9.90;99.90;;;;;;5074166;28;20066;-73
2024/03/04 10:26:40;;;;;;;1999.90;999.90;;;9.90;99.90;;;;;;5056519;28;20068;-73
2024/03/04 10:29:06;;;;;;;;;;;9.90;99.90;;;;;;5045495;28;20026;-76
2024/03/04 10:31:32;;;;;;;1999.90;999.90;;;9.80;99.90;;;;;;5057156;28;19919;-76
2024/03/04 10:34:00;;;;;;;1999.90;999.90;;;10.00;99.90;;;;;;5070086;28;20020;-80
2024/03/04 10:36:28;;;;;;;1999.90;999.90;;;9.80;99.90;;;;;;5063179;28;20024;-75
2024/03/04 10:38:55;;;;;;;1999.90;999.90;;;9.90;99.90;;;;;;5063774;28;20033;-72
2024/03/04 10:41:25;;;;;;;1999.90;999.90;;;10.00;99.90;;;;;;5067307;28;20013;-74
2024/03/04 10:43:52;;;;;;;1999.90;999.90;;;10.10;99.90;;;;;;5066113;28;20493;-74
2024/03/04 10:46:19;;;;;;;1999.90;999.90;;;10.20;99.90;;;;;;5056615;28;20024;-74
2024/03/04 10:48:48;;;;;;;1999.90;999.90;;;10.30;99.90;;;;;;5062136;28;20029;-76
2024/03/04 10:51:15;;;;;;;1999.90;999.90;;;10.20;99.90;;;;;;5061976;28;20096;-75
2024/03/04 10:53:42;;;;;;;1999.90;999.90;;;10.10;99.90;;;;;;5052443;28;20025;-76
2024/03/04 10:56:10;;;;;;;1999.90;999.90;;;10.10;99.90;;;;;;5059627;28;20070;-73
2024/03/04 10:58:42;;;;;;;1999.90;999.90;;;10.10;99.90;;;;;;5056556;28;20033;-73
2024/03/04 11:01:13;;;;;;;1999.90;999.90;;;10.10;99.90;;;;;;5053864;28;20025;-76
2024/03/04 11:03:46;;;;;;;1999.90;999.90;;;10.00;99.90;;;;;;5060691;28;20078;-76
2024/03/04 11:06:19;;;;;;;1999.90;999.90;;;10.20;99.90;;;;;;5054179;28;20032;-78
2024/03/04 11:08:53;;;;;;;1999.90;999.90;;;10.30;99.90;;;;;;5053587;28;20041;-75
2024/03/04 11:11:26;;;;;;;1999.90;999.90;;;10.30;99.90;;;;;;5055547;28;20038;-72
2024/03/04 11:13:52;;;;;;;;;;;10.40;99.90;;;;;;5051794;28;20099;-72
2024/03/04 11:16:34;;;;;;;1999.90;999.90;;;10.30;99.90;;;;;;5068249;28;19924;-76
2024/03/04 11:19:39;;;;;;;1999.90;999.90;;;10.20;99.90;;;;;;5053060;28;20071;-72
2024/03/04 11:22:07;;;;;;;1999.90;999.90;;;10.20;99.90;;;;;;5025390;28;20033;-72
2024/03/04 11:24:33;;;;;;;1999.90;999.90;;;10.30;99.90;;;;;;5060325;28;20032;-74
2024/03/04 11:26:59;;;;;;;1999.90;999.90;;;10.40;99.90;;;;;;5067100;28;20037;-72
2024/03/04 11:29:26;;;;;;;1999.90;999.90;;;10.40;99.90;;;;;;5059497;28;20025;-76
2024/03/04 11:31:56;;;;;;;1999.90;999.90;;;10.40;99.90;;;;;;5062803;28;20044;-73
2024/03/04 11:34:22;;;;;;;1999.90;999.90;;;10.30;99.90;;;;;;5061948;28;20060;-72
2024/03/04 11:36:51;;;;;;;1999.90;999.90;;;10.50;99.90;;;;;;5053219;28;20056;-72
2024/03/04 11:39:24;;;;;;;1999.90;999.90;;;10.30;99.90;;;;;;5061372;28;20032;-72
2024/03/04 11:41:52;;;;;;;;;;;10.40;99.90;;;;;;5052470;28;20486;-76
2024/03/04 11:44:26;;;;;;;1999.90;999.90;;;10.40;99.90;;;;;;5062033;28;19908;-72
2024/03/04 11:46:55;;;;;;;1999.90;999.90;;;10.30;99.90;;;;;;5057766;28;20036;-77
2024/03/04 11:49:28;;;;;;;1999.90;999.90;;;10.30;99.90;;;;;;5072254;28;20048;-76
2024/03/04 11:51:59;;;;;;;;;;;10.20;99.90;;;;;;5051879;28;20035;-72
2024/03/04 11:54:36;;;;;;;1999.90;999.90;;;10.10;99.90;;;;;;5060893;28;19931;-73
2024/03/04 11:57:07;;;;;;;1999.90;999.90;;;10.10;99.90;;;;;;5052791;28;20044;-75
2024/03/04 11:59:33;;;;;;;1999.90;999.90;;;10.00;99.90;;;;;;5071712;28;20043;-72
2024/03/04 12:01:58;;;;;;;1999.90;999.90;;;10.00;99.90;;;;;;5065600;28;20471;-73
2024/03/04 12:04:29;;;;;;;1999.90;999.90;;;9.90;99.90;;;;;;5052756;28;20023;-72
2024/03/04 12:06:55;;;;;;;1999.90;999.90;;;9.70;99.90;;;;;;5046743;28;20398;-74